Holloman Air Force Base, New Mexico
Current Conditions -  °F | °C
As of 11:58 AM on Thursday 23 Oct 2014 (Local Time) from KHMN Reporting Station
Clear Clear  
Wind Chill: 73°   Ceiling: Unl
Heat Index: 73°   Visibility: 10mi
Dew Point: 51°   Wind: 1mph
Humidity: 47%   Direction: 230°SW
Pressure: 30.21"   Gusts: NA
Location:  32.8635°N, 106.0004°W
Report Text: KHMN 231758Z AUTO 23001KT 10SM CLR 23/11 A3021 RMK AO2 SLP179 T02280108 10228 20095 58002 $
Loading
Personal Weather Stations






























Interactive Weather Map
Tropical Storm Tracking
New forecast layout! Learn more

10-Day Weather Forecast

Advertisements
Track Severe Weather on mobile